createdAt,value
2018-07-11T00:01:10.078Z,28.37
2018-07-11T00:03:41.401Z,27.67
2018-07-11T00:06:09.664Z,28.37
2018-07-11T00:08:37.951Z,25.23
2018-07-11T00:11:06.605Z,22.37
2018-07-11T00:13:35.146Z,19.70
2018-07-11T00:16:03.642Z,24.10
2018-07-11T00:18:32.154Z,24.53
2018-07-11T00:21:00.614Z,31.73
2018-07-11T00:23:28.785Z,31.17
2018-07-11T00:25:56.933Z,30.40
2018-07-11T00:28:25.332Z,27.07
2018-07-11T00:30:53.473Z,34.70
2018-07-11T00:33:21.942Z,33.47
2018-07-11T00:35:50.088Z,29.27
2018-07-11T00:38:18.820Z,35.47
2018-07-11T00:40:47.387Z,22.50
2018-07-11T00:43:15.640Z,29.50
2018-07-11T00:45:44.360Z,23.60
2018-07-11T00:48:12.604Z,30.93
2018-07-11T00:50:41.183Z,32.03
2018-07-11T00:53:09.377Z,32.10
2018-07-11T00:55:37.880Z,32.17
2018-07-11T00:58:09.334Z,25.70
2018-07-11T01:00:37.598Z,27.53
2018-07-11T01:03:05.771Z,34.27
2018-07-11T01:05:33.903Z,24.00
2018-07-11T01:08:02.111Z,28.07
2018-07-11T01:10:30.588Z,30.40
2018-07-11T01:12:59.336Z,28.03
2018-07-11T01:15:27.489Z,28.60
2018-07-11T01:18:03.684Z,31.33
2018-07-11T01:20:31.878Z,27.53
2018-07-11T01:23:00.034Z,31.83
2018-07-11T01:25:29.005Z,29.57
2018-07-11T01:27:57.166Z,29.10
2018-07-11T01:30:25.328Z,25.47
2018-07-11T01:32:53.514Z,27.63
2018-07-11T01:35:21.699Z,24.40
2018-07-11T01:37:50.152Z,28.13
2018-07-11T01:40:18.426Z,33.37
2018-07-11T01:42:46.605Z,32.00
2018-07-11T01:45:14.902Z,33.93
2018-07-11T01:47:43.069Z,33.47
2018-07-11T01:50:11.309Z,33.03
2018-07-11T01:52:45.187Z,30.70
2018-07-11T01:55:13.307Z,26.87
2018-07-11T01:57:41.512Z,30.40
2018-07-11T02:00:10.413Z,39.37
2018-07-11T02:02:38.590Z,35.17
2018-07-11T02:05:07.175Z,32.83
2018-07-11T02:07:35.353Z,31.27
2018-07-11T02:10:03.798Z,34.47
2018-07-11T02:12:31.963Z,28.43
2018-07-11T02:15:07.338Z,31.50
2018-07-11T02:17:37.668Z,31.27
2018-07-11T02:20:06.913Z,36.10
2018-07-11T02:22:35.340Z,33.57
2018-07-11T02:25:04.464Z,30.23
2018-07-11T02:27:32.985Z,30.77
2018-07-11T02:30:02.305Z,33.03
2018-07-11T02:32:31.396Z,31.70
2018-07-11T02:34:59.539Z,41.90
2018-07-11T02:37:27.720Z,40.37
2018-07-11T02:39:56.177Z,33.10
2018-07-11T02:42:24.421Z,31.80
2018-07-11T02:44:52.629Z,37.30
2018-07-11T02:47:26.267Z,35.43
2018-07-11T02:49:54.414Z,35.20
2018-07-11T02:52:22.576Z,39.70
2018-07-11T02:54:50.779Z,35.23
2018-07-11T02:57:18.900Z,40.03
2018-07-11T02:59:47.061Z,34.73
2018-07-11T03:02:15.216Z,32.67
2018-07-11T03:04:43.360Z,34.83
2018-07-11T03:07:11.572Z,36.00
2018-07-11T03:09:40.577Z,41.80
2018-07-11T03:12:09.083Z,31.77
2018-07-11T03:14:38.297Z,35.90
2018-07-11T03:17:06.452Z,32.20
2018-07-11T03:19:34.718Z,28.23
2018-07-11T03:22:02.872Z,27.70
2018-07-11T03:24:31.030Z,25.33
2018-07-11T03:26:59.246Z,25.23
2018-07-11T03:29:27.467Z,34.07
2018-07-11T03:31:56.071Z,34.37
2018-07-11T03:34:24.201Z,31.00
2018-07-11T03:36:52.350Z,33.80
2018-07-11T03:39:20.529Z,31.73
2018-07-11T03:41:48.725Z,26.50
2018-07-11T03:44:17.065Z,25.30
2018-07-11T03:46:45.627Z,28.63
2018-07-11T03:49:13.826Z,33.50
2018-07-11T03:51:41.972Z,33.40
2018-07-11T03:54:10.218Z,29.30
2018-07-11T03:56:38.417Z,25.73
2018-07-11T03:59:06.692Z,34.13
2018-07-11T04:01:34.902Z,32.53
2018-07-11T04:04:03.033Z,31.50
2018-07-11T04:06:31.199Z,32.17
2018-07-11T04:08:59.462Z,29.47
2018-07-11T04:11:27.683Z,32.10
2018-07-11T04:13:55.840Z,31.83
2018-07-11T04:16:23.964Z,26.47
2018-07-11T04:18:52.137Z,31.97
2018-07-11T04:21:20.309Z,24.97
2018-07-11T04:23:48.959Z,28.77
2018-07-11T04:26:17.136Z,28.07
2018-07-11T04:28:45.263Z,24.50
2018-07-11T04:31:13.462Z,29.83
2018-07-11T04:33:42.039Z,26.43
2018-07-11T04:36:10.196Z,30.10
2018-07-11T04:38:38.404Z,26.17
2018-07-11T04:41:06.762Z,28.13
2018-07-11T04:43:35.206Z,22.43
2018-07-11T04:46:03.510Z,26.27
2018-07-11T04:48:31.729Z,31.73
2018-07-11T04:50:59.952Z,22.50
2018-07-11T04:53:28.608Z,20.07
2018-07-11T04:56:00.336Z,24.30
2018-07-11T04:58:29.416Z,24.93
2018-07-11T05:00:58.447Z,22.50
2018-07-11T05:03:26.947Z,21.97
2018-07-11T05:05:55.136Z,24.43
2018-07-11T05:08:24.289Z,22.07
2018-07-11T05:10:53.303Z,19.97
2018-07-11T05:13:21.969Z,24.83
2018-07-11T05:15:50.159Z,17.90
2018-07-11T05:18:18.409Z,19.53
2018-07-11T05:20:47.258Z,19.43
2018-07-11T05:23:15.932Z,15.97
2018-07-11T05:25:44.818Z,18.10
2018-07-11T05:28:12.984Z,18.60
2018-07-11T05:30:41.275Z,16.13
2018-07-11T05:33:09.448Z,19.43
2018-07-11T05:35:38.009Z,18.23
2018-07-11T05:38:06.207Z,16.17
2018-07-11T05:40:34.387Z,17.53
2018-07-11T05:43:02.850Z,16.23
2018-07-11T05:45:31.158Z,15.30
2018-07-11T05:47:59.341Z,15.63
2018-07-11T05:50:27.504Z,18.07
2018-07-11T05:52:55.730Z,14.70
2018-07-11T05:55:23.947Z,15.93
2018-07-11T05:57:52.131Z,18.10
2018-07-11T06:00:20.479Z,10.23
2018-07-11T06:02:48.678Z,14.77
2018-07-11T06:05:17.037Z,14.93
2018-07-11T06:07:45.236Z,13.37
2018-07-11T06:10:13.412Z,14.97
2018-07-11T06:12:41.600Z,12.53
2018-07-11T06:15:10.141Z,10.80
2018-07-11T06:17:38.408Z,16.43
2018-07-11T06:20:06.685Z,13.47
2018-07-11T06:22:36.033Z,9.97
2018-07-11T06:25:04.512Z,13.30
2018-07-11T06:27:32.721Z,11.90
2018-07-11T06:30:00.984Z,13.60
2018-07-11T06:32:29.572Z,14.83
2018-07-11T06:34:57.782Z,9.87
2018-07-11T06:37:26.034Z,14.43
2018-07-11T06:39:54.331Z,12.30
2018-07-11T06:42:22.490Z,10.80
2018-07-11T06:44:50.821Z,12.47
2018-07-11T06:47:19.343Z,12.70
2018-07-11T06:49:48.437Z,10.70
2018-07-11T06:52:16.936Z,13.00
2018-07-11T06:54:45.097Z,9.97
2018-07-11T06:57:14.167Z,13.13
2018-07-11T06:59:42.384Z,13.00
2018-07-11T07:02:10.575Z,12.23
2018-07-11T07:04:38.709Z,13.20
2018-07-11T07:07:06.864Z,13.20
2018-07-11T07:09:35.005Z,9.63
2018-07-11T07:12:03.409Z,7.60
2018-07-11T07:14:31.597Z,10.33
2018-07-11T07:16:59.966Z,7.27
2018-07-11T07:19:28.151Z,10.90
2018-07-11T07:21:56.296Z,12.00
2018-07-11T07:24:24.471Z,9.67
2018-07-11T07:26:52.764Z,9.83
2018-07-11T07:29:20.916Z,11.03
2018-07-11T07:31:49.232Z,12.93
2018-07-11T07:34:17.439Z,13.60
2018-07-11T07:36:45.861Z,11.47
2018-07-11T07:39:14.046Z,9.37
2018-07-11T07:41:42.454Z,11.13
2018-07-11T07:44:11.772Z,10.97
2018-07-11T07:46:40.012Z,8.17
2018-07-11T07:49:08.193Z,7.57
2018-07-11T07:51:36.582Z,9.77
2018-07-11T07:54:05.787Z,13.63
2018-07-11T07:56:34.233Z,6.97
2018-07-11T07:59:02.525Z,9.00
2018-07-11T08:01:31.146Z,9.23
2018-07-11T08:03:59.245Z,7.30
2018-07-11T08:06:27.460Z,10.60
2018-07-11T08:08:56.033Z,9.53
2018-07-11T08:11:24.243Z,12.07
2018-07-11T08:13:52.400Z,10.97
2018-07-11T08:16:20.620Z,9.83
2018-07-11T08:18:48.768Z,11.57
2018-07-11T08:21:17.252Z,9.53
2018-07-11T08:23:51.023Z,9.73
2018-07-11T08:26:25.487Z,5.93
2018-07-11T08:31:05.429Z,8.40
2018-07-11T08:34:41.028Z,10.77
2018-07-11T08:39:17.644Z,9.83
2018-07-11T08:41:53.404Z,7.60
2018-07-11T08:44:58.118Z,6.70
2018-07-11T08:47:34.445Z,7.47
2018-07-11T08:50:07.699Z,9.33
2018-07-11T08:52:42.071Z,10.97
2018-07-11T08:55:17.889Z,8.73
2018-07-11T08:57:58.625Z,14.27
2018-07-11T09:00:32.416Z,9.80
2018-07-11T09:03:12.099Z,8.53
2018-07-11T09:05:44.970Z,9.97
2018-07-11T09:08:31.596Z,10.90
2018-07-11T09:11:05.426Z,6.10
2018-07-11T09:13:39.082Z,7.03
2018-07-11T09:16:16.650Z,7.87
2018-07-11T09:18:50.405Z,4.50
2018-07-11T09:21:22.510Z,6.47
2018-07-11T09:23:57.158Z,5.03
2018-07-11T09:26:25.328Z,5.20
2018-07-11T09:28:53.479Z,7.43
2018-07-11T09:31:21.716Z,4.83
2018-07-11T09:33:49.927Z,4.33
2018-07-11T09:36:18.189Z,4.97
2018-07-11T09:38:46.343Z,5.10
2018-07-11T09:41:14.550Z,5.27
2018-07-11T09:43:42.846Z,5.80
2018-07-11T09:46:11.044Z,5.77
2018-07-11T09:48:39.555Z,3.20
2018-07-11T09:51:08.243Z,5.83
2018-07-11T09:53:36.811Z,7.87
2018-07-11T09:56:05.043Z,3.97
2018-07-11T09:58:33.366Z,3.53
2018-07-11T10:02:28.738Z,8.03
2018-07-11T10:04:57.292Z,5.27
2018-07-11T10:07:26.586Z,5.83
2018-07-11T10:09:55.718Z,6.23
2018-07-11T10:12:24.401Z,8.83
2018-07-11T10:14:52.908Z,6.00
2018-07-11T10:17:21.127Z,7.70
2018-07-11T10:19:49.838Z,3.67
2018-07-11T10:23:30.228Z,4.63
2018-07-11T10:25:58.528Z,3.80
2018-07-11T10:28:26.803Z,6.60
2018-07-11T10:30:55.353Z,3.67
2018-07-11T10:33:23.944Z,5.57
2018-07-11T10:35:52.520Z,5.00
2018-07-11T10:38:21.254Z,8.00
2018-07-11T10:40:49.847Z,4.70
2018-07-11T10:43:18.447Z,4.70
2018-07-11T10:45:47.745Z,3.97
2018-07-11T10:48:16.509Z,3.63
2018-07-11T10:50:45.147Z,5.57
2018-07-11T10:53:14.069Z,4.33
2018-07-11T10:55:42.717Z,4.60
2018-07-11T10:58:12.738Z,3.73
2018-07-11T11:00:41.813Z,4.57
2018-07-11T11:03:10.497Z,4.57
2018-07-11T11:05:39.013Z,7.77
2018-07-11T11:08:07.526Z,6.43
2018-07-11T11:10:36.072Z,4.53
2018-07-11T11:13:04.796Z,6.37
2018-07-11T11:15:33.364Z,5.47
2018-07-11T11:18:02.033Z,8.37
2018-07-11T11:20:30.742Z,4.87
2018-07-11T11:22:59.441Z,7.73
2018-07-11T11:25:28.150Z,7.03
2018-07-11T11:27:58.221Z,5.23
2018-07-11T11:30:26.869Z,6.50
2018-07-11T11:32:55.208Z,7.50
2018-07-11T11:35:24.090Z,7.60
2018-07-11T11:37:52.769Z,6.17
2018-07-11T11:40:21.427Z,6.70
2018-07-11T11:42:50.115Z,9.47
2018-07-11T11:45:19.935Z,10.00
2018-07-11T11:47:48.647Z,6.57
2018-07-11T11:50:17.213Z,7.77
2018-07-11T11:52:45.947Z,5.40
2018-07-11T11:55:14.757Z,5.93
2018-07-11T11:57:43.320Z,5.67
2018-07-11T12:00:11.566Z,6.30
2018-07-11T12:02:40.634Z,8.77
2018-07-11T12:05:09.454Z,9.10
2018-07-11T12:07:38.166Z,7.57
2018-07-11T12:10:06.900Z,9.37
2018-07-11T12:12:35.585Z,10.23
2018-07-11T12:15:04.644Z,5.93
2018-07-11T12:17:33.292Z,5.07
2018-07-11T12:20:02.015Z,7.17
2018-07-11T12:22:30.627Z,6.00
2018-07-11T12:24:59.473Z,4.87
2018-07-11T12:27:27.949Z,4.50
2018-07-11T12:29:56.570Z,5.30
2018-07-11T12:32:29.852Z,7.77
2018-07-11T12:34:58.680Z,3.97
2018-07-11T12:37:31.767Z,4.70
2018-07-11T12:40:00.611Z,7.63
2018-07-11T12:42:29.284Z,6.37
2018-07-11T12:44:57.877Z,5.17
2018-07-11T12:47:31.946Z,6.43
2018-07-11T12:50:00.524Z,5.60
2018-07-11T12:52:29.470Z,6.17
2018-07-11T12:54:58.223Z,7.40
2018-07-11T12:57:26.921Z,7.53
2018-07-11T12:59:55.488Z,6.87
2018-07-11T13:02:24.152Z,8.73
2018-07-11T13:04:53.267Z,5.67
2018-07-11T13:07:22.018Z,8.00
2018-07-11T13:09:50.679Z,6.77
2018-07-11T13:12:19.273Z,5.53
2018-07-11T13:14:47.837Z,6.47
2018-07-11T13:17:16.450Z,7.17
2018-07-11T13:19:45.093Z,6.17
2018-07-11T13:22:13.891Z,8.80
2018-07-11T13:24:43.247Z,9.93
2018-07-11T13:27:11.501Z,6.07
2018-07-11T13:29:40.187Z,9.00
2018-07-11T13:32:08.864Z,7.03
2018-07-11T13:34:38.019Z,7.07
2018-07-11T13:37:07.049Z,10.50
2018-07-11T13:39:35.823Z,5.60
2018-07-11T13:42:04.440Z,8.17
2018-07-11T13:44:33.070Z,5.23
2018-07-11T13:47:06.005Z,7.47
2018-07-11T13:49:34.670Z,9.07
2018-07-11T13:52:03.330Z,9.00
2018-07-11T13:54:34.746Z,7.97
2018-07-11T13:57:04.104Z,10.50
2018-07-11T13:59:32.727Z,7.00
2018-07-11T14:02:01.398Z,6.87
2018-07-11T14:04:30.018Z,10.00
2018-07-11T14:06:58.873Z,8.73
2018-07-11T14:09:27.555Z,7.73
2018-07-11T14:11:56.290Z,6.30
2018-07-11T14:14:24.953Z,7.03
2018-07-11T14:16:53.473Z,5.40
2018-07-11T14:19:22.031Z,6.80
2018-07-11T14:21:50.819Z,5.63
2018-07-11T14:24:19.577Z,8.33
2018-07-11T14:26:48.068Z,6.40
2018-07-11T14:29:16.647Z,4.80
2018-07-11T14:31:45.192Z,7.03
2018-07-11T14:34:13.709Z,8.43
2018-07-11T14:36:42.520Z,10.73
2018-07-11T14:39:11.329Z,5.83
2018-07-11T14:41:40.037Z,7.23
2018-07-11T14:44:08.716Z,7.70
2018-07-11T14:46:37.608Z,6.07
2018-07-11T14:49:06.241Z,7.20
2018-07-11T14:51:35.007Z,5.33
2018-07-11T14:54:03.392Z,4.77
2018-07-11T14:56:32.003Z,5.93
2018-07-11T14:59:00.622Z,9.53
2018-07-11T15:01:29.272Z,7.60
2018-07-11T15:03:57.868Z,8.83
2018-07-11T15:06:26.551Z,10.73
2018-07-11T15:08:56.180Z,6.80
2018-07-11T15:11:24.973Z,6.33
2018-07-11T15:13:53.452Z,7.23
2018-07-11T15:16:22.006Z,6.17
2018-07-11T15:18:57.148Z,8.27
2018-07-11T15:21:25.615Z,5.50
2018-07-11T15:23:54.150Z,9.17
2018-07-11T15:26:23.234Z,7.37
2018-07-11T15:28:51.879Z,9.80
2018-07-11T15:31:20.339Z,7.67
2018-07-11T15:33:48.876Z,8.93
2018-07-11T15:36:17.534Z,9.17
2018-07-11T15:38:46.051Z,7.57
2018-07-11T15:41:14.797Z,6.23
2018-07-11T15:43:43.353Z,10.83
2018-07-11T15:46:11.885Z,9.17
2018-07-11T15:48:40.470Z,9.83
2018-07-11T15:51:08.779Z,10.37
2018-07-11T15:53:37.796Z,9.27
2018-07-11T15:56:06.299Z,8.37
2018-07-11T15:58:37.782Z,9.47
2018-07-11T16:01:09.083Z,8.90
2018-07-11T16:03:42.486Z,7.27
2018-07-11T16:06:11.000Z,9.73
2018-07-11T16:08:42.602Z,9.13
2018-07-11T16:11:11.077Z,9.00
2018-07-11T16:13:39.607Z,9.70
2018-07-11T16:16:08.200Z,13.77
2018-07-11T16:18:37.250Z,10.87
2018-07-11T16:21:06.285Z,7.77
2018-07-11T16:23:34.759Z,11.63
2018-07-11T16:26:03.395Z,11.57
2018-07-11T16:28:32.276Z,10.93
2018-07-11T16:31:00.922Z,12.20
2018-07-11T16:33:29.563Z,12.73
2018-07-11T16:35:58.182Z,10.80
2018-07-11T16:38:26.754Z,12.37
2018-07-11T16:40:55.386Z,8.57
2018-07-11T16:43:23.928Z,10.37
2018-07-11T16:45:53.291Z,12.70
2018-07-11T16:48:22.290Z,17.87
2018-07-11T16:50:50.866Z,9.53
2018-07-11T16:53:19.463Z,11.87
2018-07-11T16:55:48.174Z,12.13
2018-07-11T16:58:18.589Z,15.83
2018-07-11T17:00:50.915Z,10.77
2018-07-11T17:03:19.561Z,13.33
2018-07-11T17:05:51.311Z,19.37
2018-07-11T17:08:29.035Z,12.43
2018-07-11T17:11:09.407Z,15.43
2018-07-11T17:13:38.035Z,10.93
2018-07-11T17:16:06.993Z,14.00
2018-07-11T17:18:44.587Z,15.07
2018-07-11T17:21:22.486Z,13.60
2018-07-11T17:23:53.571Z,18.40
2018-07-11T17:26:25.916Z,13.73
2018-07-11T17:28:56.479Z,17.07
2018-07-11T17:31:25.548Z,15.03
2018-07-11T17:33:54.331Z,13.47
2018-07-11T17:36:22.928Z,18.83
2018-07-11T17:38:51.777Z,17.10
2018-07-11T17:41:20.408Z,15.93
2018-07-11T17:43:51.946Z,13.40
2018-07-11T17:46:22.713Z,19.47
2018-07-11T17:48:59.637Z,15.77
2018-07-11T17:52:35.984Z,16.17
2018-07-11T17:55:07.689Z,13.17
2018-07-11T17:57:44.785Z,12.17
2018-07-11T18:00:20.674Z,15.10
2018-07-11T18:02:54.765Z,16.57
2018-07-11T18:05:32.345Z,15.83
2018-07-11T18:08:07.525Z,14.37
2018-07-11T18:10:46.892Z,23.57
2018-07-11T18:13:33.602Z,11.77
2018-07-11T18:17:12.074Z,11.33
2018-07-11T18:20:09.694Z,14.17
2018-07-11T18:24:49.580Z,13.90
2018-07-11T18:27:29.543Z,12.87
2018-07-11T18:30:12.978Z,14.73
2018-07-11T18:32:50.605Z,14.33
2018-07-11T18:35:32.813Z,15.77
2018-07-11T18:38:12.362Z,16.07
2018-07-11T18:41:21.841Z,10.40
2018-07-11T18:46:06.972Z,18.23
2018-07-11T18:50:49.195Z,16.70
2018-07-11T18:53:43.916Z,15.47
2018-07-11T18:56:19.954Z,17.30
2018-07-11T18:58:57.678Z,14.00
2018-07-11T19:01:40.852Z,13.20
2018-07-11T19:05:23.091Z,22.17
2018-07-11T19:07:55.853Z,15.63
2018-07-11T19:10:34.703Z,15.53
2018-07-11T19:13:18.968Z,17.30
2018-07-11T19:15:50.467Z,16.23
2018-07-11T19:18:29.414Z,16.57
2018-07-11T19:22:04.112Z,18.27
2018-07-11T19:24:45.127Z,19.20
2018-07-11T19:27:22.137Z,25.93
2018-07-11T19:30:04.845Z,18.37
2018-07-11T19:34:48.626Z,24.63
2018-07-11T19:37:24.797Z,18.53
2018-07-11T19:40:02.944Z,23.93
2018-07-11T19:42:39.216Z,17.57
2018-07-11T19:45:15.046Z,16.17
2018-07-11T19:48:01.908Z,17.03
2018-07-11T19:50:41.597Z,16.50
2018-07-11T19:53:17.584Z,19.97
2018-07-11T19:56:54.541Z,18.50
2018-07-11T19:59:23.042Z,23.73
2018-07-11T20:01:51.559Z,13.17
2018-07-11T20:04:20.100Z,18.07
2018-07-11T20:06:49.199Z,17.73
2018-07-11T20:09:17.856Z,16.13
2018-07-11T20:11:46.468Z,19.70
2018-07-11T20:14:15.117Z,18.60
2018-07-11T20:16:43.729Z,17.23
2018-07-11T20:19:12.212Z,20.73
2018-07-11T20:21:40.985Z,14.70
2018-07-11T20:24:09.494Z,17.97
2018-07-11T20:26:38.020Z,14.20
2018-07-11T20:29:06.608Z,11.97
2018-07-11T20:31:34.860Z,14.20
2018-07-11T20:34:03.499Z,11.43
2018-07-11T20:36:32.091Z,14.63
2018-07-11T20:39:00.673Z,18.27
2018-07-11T20:41:29.253Z,15.73
2018-07-11T20:43:57.743Z,15.90
2018-07-11T20:46:26.786Z,17.33
2018-07-11T20:48:55.338Z,13.90
2018-07-11T20:51:23.905Z,17.87
2018-07-11T20:53:53.227Z,14.87
2018-07-11T20:56:21.727Z,15.40
2018-07-11T20:59:01.623Z,16.13
2018-07-11T21:01:41.452Z,18.03
2018-07-11T21:05:03.882Z,20.23
2018-07-11T21:08:13.901Z,15.93
2018-07-11T21:12:58.193Z,16.07
2018-07-11T21:15:44.063Z,17.60
2018-07-11T21:19:17.886Z,17.60
2018-07-11T21:21:46.330Z,22.43
2018-07-11T21:24:14.980Z,23.00
2018-07-11T21:26:43.518Z,18.03
2018-07-11T21:29:12.073Z,17.43
2018-07-11T21:31:41.248Z,16.43
2018-07-11T21:34:09.842Z,15.50
2018-07-11T21:36:38.261Z,18.83
2018-07-11T21:39:06.799Z,21.57
2018-07-11T21:41:34.947Z,17.27
2018-07-11T21:44:03.484Z,17.10
2018-07-11T21:46:32.997Z,17.07
2018-07-11T21:49:01.524Z,19.10
2018-07-11T21:51:29.933Z,17.27
2018-07-11T21:53:58.470Z,15.80
2018-07-11T21:56:26.956Z,20.83
2018-07-11T21:58:55.418Z,19.47
2018-07-11T22:01:23.906Z,19.03
2018-07-11T22:03:52.456Z,16.93
2018-07-11T22:06:20.658Z,24.83
2018-07-11T22:08:49.108Z,21.20
2018-07-11T22:11:17.829Z,19.43
2018-07-11T22:13:46.244Z,29.67
2018-07-11T22:16:14.754Z,16.97
2018-07-11T22:18:44.994Z,19.93
2018-07-11T22:21:13.248Z,16.23
2018-07-11T22:23:40.789Z,19.17
2018-07-11T22:26:08.273Z,19.23
2018-07-11T22:28:35.609Z,14.33
2018-07-11T22:31:02.949Z,24.27
2018-07-11T22:33:30.296Z,19.77
2018-07-11T22:35:57.631Z,26.07
2018-07-11T22:38:25.048Z,17.37
2018-07-11T22:40:52.433Z,18.73
2018-07-11T22:43:19.779Z,20.83
2018-07-11T22:45:47.141Z,18.70
2018-07-11T22:48:14.657Z,16.37
2018-07-11T22:50:42.243Z,17.07
2018-07-11T22:53:09.642Z,17.33
2018-07-11T22:55:36.958Z,16.20
2018-07-11T22:58:04.350Z,18.87
2018-07-11T23:00:32.049Z,24.47
2018-07-11T23:02:59.621Z,28.80
2018-07-11T23:05:27.740Z,17.57
2018-07-11T23:07:55.060Z,17.33
2018-07-11T23:10:22.420Z,20.87
2018-07-11T23:12:49.753Z,19.70
2018-07-11T23:15:17.092Z,24.80
2018-07-11T23:17:44.418Z,21.43
2018-07-11T23:20:11.739Z,18.77
2018-07-11T23:22:39.292Z,25.13
2018-07-11T23:25:06.642Z,14.70
2018-07-11T23:27:34.031Z,16.03
2018-07-11T23:30:01.343Z,17.10
2018-07-11T23:32:28.711Z,22.53
2018-07-11T23:34:56.021Z,25.07
2018-07-11T23:37:23.348Z,21.47
2018-07-11T23:39:51.487Z,16.23
2018-07-11T23:42:18.816Z,16.63
2018-07-11T23:44:46.127Z,23.90
2018-07-11T23:47:13.449Z,17.20
2018-07-11T23:49:40.815Z,18.03
2018-07-11T23:52:08.156Z,18.57
2018-07-11T23:54:35.485Z,20.63
2018-07-11T23:57:02.882Z,12.43
2018-07-11T23:59:30.326Z,25.53
